sensor_id;sensor_type;location;lat;lon;timestamp;P1;durP1;ratioP1;P2;durP2;ratioP2
2161;SDS011;1087;50.226;8.682;2022-12-26T00:00:10;10.43;;;8.40;;
2161;SDS011;1087;50.226;8.682;2022-12-26T00:02:36;9.17;;;7.57;;
2161;SDS011;1087;50.226;8.682;2022-12-26T00:05:02;9.77;;;8.77;;
2161;SDS011;1087;50.226;8.682;2022-12-26T00:07:28;8.67;;;7.53;;
2161;SDS011;1087;50.226;8.682;2022-12-26T00:09:53;8.30;;;7.50;;
2161;SDS011;1087;50.226;8.682;2022-12-26T00:12:19;9.97;;;8.00;;
2161;SDS011;1087;50.226;8.682;2022-12-26T00:14:44;8.40;;;7.40;;
2161;SDS011;1087;50.226;8.682;2022-12-26T00:17:10;9.50;;;6.90;;
2161;SDS011;1087;50.226;8.682;2022-12-26T00:19:35;10.87;;;8.10;;
2161;SDS011;1087;50.226;8.682;2022-12-26T00:22:01;8.10;;;7.30;;
2161;SDS011;1087;50.226;8.682;2022-12-26T00:24:26;8.50;;;7.60;;
2161;SDS011;1087;50.226;8.682;2022-12-26T00:26:52;9.40;;;7.20;;
2161;SDS011;1087;50.226;8.682;2022-12-26T00:29:17;8.83;;;7.93;;
2161;SDS011;1087;50.226;8.682;2022-12-26T00:31:43;7.90;;;7.07;;
2161;SDS011;1087;50.226;8.682;2022-12-26T00:34:08;8.97;;;7.00;;
2161;SDS011;1087;50.226;8.682;2022-12-26T00:36:34;7.43;;;6.57;;
2161;SDS011;1087;50.226;8.682;2022-12-26T00:39:00;8.33;;;7.50;;
2161;SDS011;1087;50.226;8.682;2022-12-26T00:41:29;8.70;;;6.90;;
2161;SDS011;1087;50.226;8.682;2022-12-26T00:43:55;8.67;;;7.30;;
2161;SDS011;1087;50.226;8.682;2022-12-26T00:46:20;8.60;;;7.73;;
2161;SDS011;1087;50.226;8.682;2022-12-26T00:48:46;8.60;;;7.70;;
2161;SDS011;1087;50.226;8.682;2022-12-26T00:51:12;7.07;;;6.37;;
2161;SDS011;1087;50.226;8.682;2022-12-26T00:53:38;8.77;;;7.07;;
2161;SDS011;1087;50.226;8.682;2022-12-26T00:56:04;8.10;;;7.17;;
2161;SDS011;1087;50.226;8.682;2022-12-26T00:58:30;8.20;;;7.40;;
2161;SDS011;1087;50.226;8.682;2022-12-26T01:01:03;6.63;;;5.93;;
2161;SDS011;1087;50.226;8.682;2022-12-26T01:03:33;7.93;;;6.30;;
2161;SDS011;1087;50.226;8.682;2022-12-26T01:06:00;7.07;;;6.17;;
2161;SDS011;1087;50.226;8.682;2022-12-26T01:08:27;7.30;;;6.50;;
2161;SDS011;1087;50.226;8.682;2022-12-26T01:10:52;7.53;;;6.30;;
2161;SDS011;1087;50.226;8.682;2022-12-26T01:13:18;6.03;;;5.43;;
2161;SDS011;1087;50.226;8.682;2022-12-26T01:15:47;7.03;;;6.33;;
2161;SDS011;1087;50.226;8.682;2022-12-26T01:18:14;8.10;;;6.77;;
2161;SDS011;1087;50.226;8.682;2022-12-26T01:20:40;7.10;;;5.97;;
2161;SDS011;1087;50.226;8.682;2022-12-26T01:23:05;8.07;;;6.63;;
2161;SDS011;1087;50.226;8.682;2022-12-26T01:25:31;6.60;;;6.10;;
2161;SDS011;1087;50.226;8.682;2022-12-26T01:27:56;6.70;;;6.03;;
2161;SDS011;1087;50.226;8.682;2022-12-26T01:30:22;8.10;;;6.23;;
2161;SDS011;1087;50.226;8.682;2022-12-26T01:32:48;7.57;;;6.10;;
2161;SDS011;1087;50.226;8.682;2022-12-26T01:35:15;7.07;;;6.37;;
2161;SDS011;1087;50.226;8.682;2022-12-26T01:37:40;6.70;;;6.00;;
2161;SDS011;1087;50.226;8.682;2022-12-26T01:40:06;7.30;;;6.00;;
2161;SDS011;1087;50.226;8.682;2022-12-26T01:42:36;6.80;;;6.10;;
2161;SDS011;1087;50.226;8.682;2022-12-26T01:45:05;7.50;;;5.83;;
2161;SDS011;1087;50.226;8.682;2022-12-26T01:50:19;7.83;;;6.10;;
2161;SDS011;1087;50.226;8.682;2022-12-26T01:55:55;6.10;;;4.93;;
2161;SDS011;1087;50.226;8.682;2022-12-26T01:58:29;8.07;;;6.70;;
2161;SDS011;1087;50.226;8.682;2022-12-26T02:00:58;6.80;;;5.90;;
2161;SDS011;1087;50.226;8.682;2022-12-26T02:03:25;7.10;;;5.67;;
2161;SDS011;1087;50.226;8.682;2022-12-26T02:06:09;6.97;;;5.10;;
2161;SDS011;1087;50.226;8.682;2022-12-26T02:08:37;6.53;;;5.47;;
2161;SDS011;1087;50.226;8.682;2022-12-26T02:11:09;8.13;;;6.87;;
2161;SDS011;1087;50.226;8.682;2022-12-26T02:13:40;6.07;;;5.33;;
2161;SDS011;1087;50.226;8.682;2022-12-26T02:16:06;7.97;;;5.70;;
2161;SDS011;1087;50.226;8.682;2022-12-26T02:18:36;10.30;;;5.27;;
2161;SDS011;1087;50.226;8.682;2022-12-26T02:23:53;5.50;;;5.00;;
2161;SDS011;1087;50.226;8.682;2022-12-26T02:46:18;5.87;;;4.90;;
2161;SDS011;1087;50.226;8.682;2022-12-26T02:49:27;6.30;;;4.80;;
2161;SDS011;1087;50.226;8.682;2022-12-26T02:52:13;5.60;;;4.43;;
2161;SDS011;1087;50.226;8.682;2022-12-26T02:55:05;6.00;;;5.40;;
2161;SDS011;1087;50.226;8.682;2022-12-26T03:01:04;5.77;;;4.60;;
2161;SDS011;1087;50.226;8.682;2022-12-26T03:03:55;5.93;;;5.10;;
2161;SDS011;1087;50.226;8.682;2022-12-26T03:06:44;7.30;;;4.80;;
2161;SDS011;1087;50.226;8.682;2022-12-26T03:09:35;6.93;;;5.10;;
2161;SDS011;1087;50.226;8.682;2022-12-26T03:15:28;6.80;;;5.30;;
2161;SDS011;1087;50.226;8.682;2022-12-26T03:18:18;5.90;;;4.40;;
2161;SDS011;1087;50.226;8.682;2022-12-26T03:20:46;7.80;;;5.43;;
2161;SDS011;1087;50.226;8.682;2022-12-26T03:23:14;7.83;;;5.60;;
2161;SDS011;1087;50.226;8.682;2022-12-26T03:28:37;6.50;;;4.90;;
2161;SDS011;1087;50.226;8.682;2022-12-26T03:31:08;6.83;;;5.50;;
2161;SDS011;1087;50.226;8.682;2022-12-26T03:33:41;5.40;;;4.90;;
2161;SDS011;1087;50.226;8.682;2022-12-26T03:36:30;5.70;;;5.20;;
2161;SDS011;1087;50.226;8.682;2022-12-26T03:42:14;5.50;;;5.00;;
2161;SDS011;1087;50.226;8.682;2022-12-26T03:45:19;6.10;;;5.10;;
2161;SDS011;1087;50.226;8.682;2022-12-26T03:48:31;5.43;;;4.63;;
2161;SDS011;1087;50.226;8.682;2022-12-26T03:51:28;8.50;;;6.00;;
2161;SDS011;1087;50.226;8.682;2022-12-26T03:54:36;5.07;;;4.57;;
2161;SDS011;1087;50.226;8.682;2022-12-26T03:57:30;6.90;;;5.37;;
2161;SDS011;1087;50.226;8.682;2022-12-26T04:00:21;5.87;;;5.23;;
2161;SDS011;1087;50.226;8.682;2022-12-26T04:03:07;6.73;;;5.70;;
2161;SDS011;1087;50.226;8.682;2022-12-26T04:05:55;8.70;;;6.63;;
2161;SDS011;1087;50.226;8.682;2022-12-26T04:08:44;5.13;;;4.63;;
2161;SDS011;1087;50.226;8.682;2022-12-26T04:11:36;5.80;;;4.90;;
2161;SDS011;1087;50.226;8.682;2022-12-26T04:17:33;6.17;;;5.57;;
2161;SDS011;1087;50.226;8.682;2022-12-26T04:23:14;6.60;;;5.23;;
2161;SDS011;1087;50.226;8.682;2022-12-26T04:26:29;6.43;;;4.83;;
2161;SDS011;1087;50.226;8.682;2022-12-26T04:29:19;5.80;;;5.20;;
2161;SDS011;1087;50.226;8.682;2022-12-26T04:32:24;6.70;;;5.27;;
2161;SDS011;1087;50.226;8.682;2022-12-26T04:35:47;6.93;;;4.10;;
2161;SDS011;1087;50.226;8.682;2022-12-26T04:38:37;6.87;;;4.80;;
2161;SDS011;1087;50.226;8.682;2022-12-26T04:41:25;6.37;;;4.77;;
2161;SDS011;1087;50.226;8.682;2022-12-26T04:44:11;6.57;;;5.67;;
2161;SDS011;1087;50.226;8.682;2022-12-26T04:46:42;7.87;;;5.30;;
2161;SDS011;1087;50.226;8.682;2022-12-26T04:49:11;5.83;;;4.57;;
2161;SDS011;1087;50.226;8.682;2022-12-26T04:51:57;6.13;;;4.87;;
2161;SDS011;1087;50.226;8.682;2022-12-26T04:54:25;5.70;;;5.10;;
2161;SDS011;1087;50.226;8.682;2022-12-26T04:56:51;5.93;;;5.03;;
2161;SDS011;1087;50.226;8.682;2022-12-26T04:59:17;6.20;;;5.60;;
2161;SDS011;1087;50.226;8.682;2022-12-26T05:01:42;6.03;;;4.97;;
2161;SDS011;1087;50.226;8.682;2022-12-26T05:04:38;6.53;;;5.03;;
2161;SDS011;1087;50.226;8.682;2022-12-26T05:10:09;4.73;;;4.07;;
2161;SDS011;1087;50.226;8.682;2022-12-26T05:12:40;5.73;;;5.17;;
2161;SDS011;1087;50.226;8.682;2022-12-26T05:15:06;4.90;;;4.40;;
2161;SDS011;1087;50.226;8.682;2022-12-26T05:17:32;5.70;;;4.37;;
2161;SDS011;1087;50.226;8.682;2022-12-26T05:20:16;6.47;;;5.10;;
2161;SDS011;1087;50.226;8.682;2022-12-26T05:23:00;5.13;;;4.63;;
2161;SDS011;1087;50.226;8.682;2022-12-26T05:25:45;4.80;;;3.87;;
2161;SDS011;1087;50.226;8.682;2022-12-26T05:28:30;6.20;;;5.60;;
2161;SDS011;1087;50.226;8.682;2022-12-26T05:31:09;4.83;;;4.40;;
2161;SDS011;1087;50.226;8.682;2022-12-26T05:33:35;5.93;;;5.03;;
2161;SDS011;1087;50.226;8.682;2022-12-26T05:36:20;6.20;;;5.13;;
2161;SDS011;1087;50.226;8.682;2022-12-26T05:38:48;7.70;;;5.53;;
2161;SDS011;1087;50.226;8.682;2022-12-26T05:41:14;6.90;;;6.20;;
2161;SDS011;1087;50.226;8.682;2022-12-26T05:43:40;6.00;;;5.40;;
2161;SDS011;1087;50.226;8.682;2022-12-26T05:46:05;6.93;;;5.80;;
2161;SDS011;1087;50.226;8.682;2022-12-26T05:48:31;7.93;;;5.63;;
2161;SDS011;1087;50.226;8.682;2022-12-26T05:50:57;6.73;;;5.00;;
2161;SDS011;1087;50.226;8.682;2022-12-26T05:53:24;5.50;;;5.00;;
2161;SDS011;1087;50.226;8.682;2022-12-26T05:55:50;6.00;;;4.97;;
2161;SDS011;1087;50.226;8.682;2022-12-26T05:58:15;7.10;;;5.17;;
2161;SDS011;1087;50.226;8.682;2022-12-26T06:00:41;5.73;;;4.83;;
2161;SDS011;1087;50.226;8.682;2022-12-26T06:03:06;5.50;;;4.73;;
2161;SDS011;1087;50.226;8.682;2022-12-26T06:05:32;5.80;;;4.70;;
2161;SDS011;1087;50.226;8.682;2022-12-26T06:07:57;5.97;;;4.50;;
2161;SDS011;1087;50.226;8.682;2022-12-26T06:10:23;5.53;;;4.70;;
2161;SDS011;1087;50.226;8.682;2022-12-26T06:12:50;5.33;;;4.80;;
2161;SDS011;1087;50.226;8.682;2022-12-26T06:15:17;6.37;;;4.67;;
2161;SDS011;1087;50.226;8.682;2022-12-26T06:17:43;5.60;;;5.10;;
2161;SDS011;1087;50.226;8.682;2022-12-26T06:20:08;6.67;;;4.63;;
2161;SDS011;1087;50.226;8.682;2022-12-26T06:22:34;6.70;;;4.47;;
2161;SDS011;1087;50.226;8.682;2022-12-26T06:25:00;5.20;;;4.17;;
2161;SDS011;1087;50.226;8.682;2022-12-26T06:27:25;5.27;;;4.77;;
2161;SDS011;1087;50.226;8.682;2022-12-26T06:29:51;5.23;;;4.70;;
2161;SDS011;1087;50.226;8.682;2022-12-26T06:32:17;5.90;;;4.53;;
2161;SDS011;1087;50.226;8.682;2022-12-26T06:34:42;5.10;;;4.60;;
2161;SDS011;1087;50.226;8.682;2022-12-26T06:37:08;5.67;;;4.53;;
2161;SDS011;1087;50.226;8.682;2022-12-26T06:39:34;5.53;;;4.10;;
2161;SDS011;1087;50.226;8.682;2022-12-26T06:41:59;5.43;;;4.73;;
2161;SDS011;1087;50.226;8.682;2022-12-26T06:44:25;4.43;;;3.80;;
2161;SDS011;1087;50.226;8.682;2022-12-26T06:46:50;6.00;;;4.67;;
2161;SDS011;1087;50.226;8.682;2022-12-26T06:49:16;6.50;;;4.80;;
2161;SDS011;1087;50.226;8.682;2022-12-26T06:51:41;4.83;;;4.40;;
2161;SDS011;1087;50.226;8.682;2022-12-26T06:54:09;6.03;;;4.50;;
2161;SDS011;1087;50.226;8.682;2022-12-26T06:56:35;4.83;;;4.27;;
2161;SDS011;1087;50.226;8.682;2022-12-26T06:59:02;5.83;;;4.60;;
2161;SDS011;1087;50.226;8.682;2022-12-26T07:01:29;7.10;;;4.63;;
2161;SDS011;1087;50.226;8.682;2022-12-26T07:03:57;4.40;;;3.93;;
2161;SDS011;1087;50.226;8.682;2022-12-26T07:06:31;5.13;;;4.63;;
2161;SDS011;1087;50.226;8.682;2022-12-26T07:09:02;5.20;;;4.70;;
2161;SDS011;1087;50.226;8.682;2022-12-26T07:11:31;7.40;;;4.53;;
2161;SDS011;1087;50.226;8.682;2022-12-26T07:13:58;4.60;;;4.20;;
2161;SDS011;1087;50.226;8.682;2022-12-26T07:16:24;5.13;;;3.90;;
2161;SDS011;1087;50.226;8.682;2022-12-26T07:18:53;5.83;;;5.07;;
2161;SDS011;1087;50.226;8.682;2022-12-26T07:21:20;5.17;;;4.60;;
2161;SDS011;1087;50.226;8.682;2022-12-26T07:23:46;5.60;;;4.63;;
2161;SDS011;1087;50.226;8.682;2022-12-26T07:26:12;7.93;;;5.07;;
2161;SDS011;1087;50.226;8.682;2022-12-26T07:28:38;6.63;;;4.90;;
2161;SDS011;1087;50.226;8.682;2022-12-26T07:31:04;6.80;;;4.70;;
2161;SDS011;1087;50.226;8.682;2022-12-26T07:33:29;5.50;;;4.80;;
2161;SDS011;1087;50.226;8.682;2022-12-26T07:36:02;6.80;;;4.90;;
2161;SDS011;1087;50.226;8.682;2022-12-26T07:38:29;5.53;;;5.03;;
2161;SDS011;1087;50.226;8.682;2022-12-26T07:40:57;6.00;;;5.40;;
2161;SDS011;1087;50.226;8.682;2022-12-26T07:43:23;6.50;;;4.90;;
2161;SDS011;1087;50.226;8.682;2022-12-26T07:45:49;6.77;;;4.50;;
2161;SDS011;1087;50.226;8.682;2022-12-26T07:48:15;9.13;;;5.87;;
2161;SDS011;1087;50.226;8.682;2022-12-26T07:50:41;9.50;;;5.30;;
2161;SDS011;1087;50.226;8.682;2022-12-26T07:53:10;6.87;;;5.00;;
2161;SDS011;1087;50.226;8.682;2022-12-26T07:55:37;7.33;;;4.47;;
2161;SDS011;1087;50.226;8.682;2022-12-26T07:58:02;6.20;;;5.60;;
2161;SDS011;1087;50.226;8.682;2022-12-26T08:00:28;5.90;;;4.97;;
2161;SDS011;1087;50.226;8.682;2022-12-26T08:02:53;6.27;;;5.30;;
2161;SDS011;1087;50.226;8.682;2022-12-26T08:05:19;7.07;;;5.53;;
2161;SDS011;1087;50.226;8.682;2022-12-26T08:07:47;6.00;;;5.00;;
2161;SDS011;1087;50.226;8.682;2022-12-26T08:10:14;6.10;;;5.03;;
2161;SDS011;1087;50.226;8.682;2022-12-26T08:12:41;6.30;;;5.27;;
2161;SDS011;1087;50.226;8.682;2022-12-26T08:15:06;6.47;;;5.53;;
2161;SDS011;1087;50.226;8.682;2022-12-26T08:17:33;6.73;;;5.70;;
2161;SDS011;1087;50.226;8.682;2022-12-26T08:19:59;8.60;;;5.87;;
2161;SDS011;1087;50.226;8.682;2022-12-26T08:22:24;7.27;;;6.00;;
2161;SDS011;1087;50.226;8.682;2022-12-26T08:24:51;10.03;;;6.23;;
2161;SDS011;1087;50.226;8.682;2022-12-26T08:27:16;7.63;;;6.60;;
2161;SDS011;1087;50.226;8.682;2022-12-26T08:29:42;7.10;;;5.73;;
2161;SDS011;1087;50.226;8.682;2022-12-26T08:32:07;10.00;;;6.53;;
2161;SDS011;1087;50.226;8.682;2022-12-26T08:34:33;7.53;;;5.70;;
2161;SDS011;1087;50.226;8.682;2022-12-26T08:37:00;6.93;;;5.40;;
2161;SDS011;1087;50.226;8.682;2022-12-26T08:39:25;7.70;;;5.17;;
2161;SDS011;1087;50.226;8.682;2022-12-26T08:41:51;8.10;;;6.90;;
2161;SDS011;1087;50.226;8.682;2022-12-26T08:44:17;9.93;;;5.97;;
2161;SDS011;1087;50.226;8.682;2022-12-26T08:46:43;7.70;;;5.30;;
2161;SDS011;1087;50.226;8.682;2022-12-26T08:49:09;7.40;;;5.37;;
2161;SDS011;1087;50.226;8.682;2022-12-26T08:51:34;6.53;;;5.83;;
2161;SDS011;1087;50.226;8.682;2022-12-26T08:54:00;6.07;;;5.47;;
2161;SDS011;1087;50.226;8.682;2022-12-26T08:56:26;10.07;;;5.83;;
2161;SDS011;1087;50.226;8.682;2022-12-26T08:58:52;8.70;;;5.77;;
2161;SDS011;1087;50.226;8.682;2022-12-26T09:01:21;8.03;;;5.80;;
2161;SDS011;1087;50.226;8.682;2022-12-26T09:03:51;7.27;;;5.20;;
2161;SDS011;1087;50.226;8.682;2022-12-26T09:06:21;9.10;;;6.23;;
2161;SDS011;1087;50.226;8.682;2022-12-26T09:08:47;13.43;;;6.63;;
2161;SDS011;1087;50.226;8.682;2022-12-26T09:11:15;6.20;;;5.60;;
2161;SDS011;1087;50.226;8.682;2022-12-26T09:13:42;11.97;;;6.73;;
2161;SDS011;1087;50.226;8.682;2022-12-26T09:16:10;8.57;;;6.10;;
2161;SDS011;1087;50.226;8.682;2022-12-26T09:18:37;9.20;;;6.43;;
2161;SDS011;1087;50.226;8.682;2022-12-26T09:21:03;7.83;;;5.67;;
2161;SDS011;1087;50.226;8.682;2022-12-26T09:23:30;7.17;;;5.63;;
2161;SDS011;1087;50.226;8.682;2022-12-26T09:26:03;6.50;;;5.80;;
2161;SDS011;1087;50.226;8.682;2022-12-26T09:28:35;8.80;;;5.50;;
2161;SDS011;1087;50.226;8.682;2022-12-26T09:31:01;9.60;;;6.07;;
2161;SDS011;1087;50.226;8.682;2022-12-26T09:33:29;7.10;;;5.70;;
2161;SDS011;1087;50.226;8.682;2022-12-26T09:35:55;5.87;;;5.27;;
2161;SDS011;1087;50.226;8.682;2022-12-26T09:38:21;8.43;;;5.90;;
2161;SDS011;1087;50.226;8.682;2022-12-26T09:41:10;8.23;;;5.37;;
2161;SDS011;1087;50.226;8.682;2022-12-26T09:48:53;7.83;;;5.33;;
2161;SDS011;1087;50.226;8.682;2022-12-26T09:51:24;10.70;;;6.53;;
2161;SDS011;1087;50.226;8.682;2022-12-26T09:53:51;7.67;;;5.47;;
2161;SDS011;1087;50.226;8.682;2022-12-26T09:56:19;6.70;;;5.93;;
2161;SDS011;1087;50.226;8.682;2022-12-26T10:01:25;7.00;;;5.20;;
2161;SDS011;1087;50.226;8.682;2022-12-26T10:03:54;6.63;;;5.87;;
2161;SDS011;1087;50.226;8.682;2022-12-26T10:06:22;7.93;;;6.03;;
2161;SDS011;1087;50.226;8.682;2022-12-26T10:11:55;7.57;;;6.30;;
2161;SDS011;1087;50.226;8.682;2022-12-26T10:17:35;6.77;;;6.03;;
2161;SDS011;1087;50.226;8.682;2022-12-26T10:25:35;6.23;;;5.40;;
2161;SDS011;1087;50.226;8.682;2022-12-26T10:36:53;8.83;;;5.70;;
2161;SDS011;1087;50.226;8.682;2022-12-26T10:39:39;8.00;;;6.10;;
2161;SDS011;1087;50.226;8.682;2022-12-26T10:42:18;7.13;;;5.70;;
2161;SDS011;1087;50.226;8.682;2022-12-26T10:44:57;8.60;;;6.30;;
2161;SDS011;1087;50.226;8.682;2022-12-26T10:47:37;7.40;;;6.70;;
2161;SDS011;1087;50.226;8.682;2022-12-26T10:50:05;4.83;;;4.33;;
2161;SDS011;1087;50.226;8.682;2022-12-26T10:52:38;5.37;;;3.90;;
2161;SDS011;1087;50.226;8.682;2022-12-26T10:55:05;5.90;;;4.60;;
2161;SDS011;1087;50.226;8.682;2022-12-26T10:57:31;5.20;;;4.70;;
2161;SDS011;1087;50.226;8.682;2022-12-26T10:59:59;7.67;;;5.27;;
2161;SDS011;1087;50.226;8.682;2022-12-26T11:02:28;8.73;;;5.00;;
2161;SDS011;1087;50.226;8.682;2022-12-26T11:04:56;4.83;;;4.33;;
2161;SDS011;1087;50.226;8.682;2022-12-26T11:07:24;5.80;;;4.17;;
2161;SDS011;1087;50.226;8.682;2022-12-26T11:09:51;4.70;;;4.20;;
2161;SDS011;1087;50.226;8.682;2022-12-26T11:12:20;5.53;;;4.53;;
2161;SDS011;1087;50.226;8.682;2022-12-26T11:14:56;4.43;;;4.03;;
2161;SDS011;1087;50.226;8.682;2022-12-26T11:17:26;3.73;;;3.20;;
2161;SDS011;1087;50.226;8.682;2022-12-26T11:20:15;3.47;;;3.17;;
2161;SDS011;1087;50.226;8.682;2022-12-26T11:22:48;3.47;;;3.17;;
2161;SDS011;1087;50.226;8.682;2022-12-26T11:25:24;4.30;;;3.17;;
2161;SDS011;1087;50.226;8.682;2022-12-26T11:27:52;3.30;;;3.00;;
2161;SDS011;1087;50.226;8.682;2022-12-26T11:30:22;3.90;;;3.03;;
2161;SDS011;1087;50.226;8.682;2022-12-26T11:33:04;3.33;;;2.50;;
2161;SDS011;1087;50.226;8.682;2022-12-26T11:35:33;3.20;;;3.00;;
2161;SDS011;1087;50.226;8.682;2022-12-26T11:38:02;3.17;;;2.60;;
2161;SDS011;1087;50.226;8.682;2022-12-26T11:40:45;3.30;;;3.00;;
2161;SDS011;1087;50.226;8.682;2022-12-26T11:43:35;2.63;;;2.03;;
2161;SDS011;1087;50.226;8.682;2022-12-26T11:46:00;3.30;;;2.63;;
2161;SDS011;1087;50.226;8.682;2022-12-26T11:48:26;4.60;;;2.87;;
2161;SDS011;1087;50.226;8.682;2022-12-26T11:50:52;4.30;;;3.00;;
2161;SDS011;1087;50.226;8.682;2022-12-26T11:53:19;4.20;;;3.10;;
2161;SDS011;1087;50.226;8.682;2022-12-26T11:56:00;3.90;;;3.50;;
2161;SDS011;1087;50.226;8.682;2022-12-26T11:58:28;3.20;;;2.87;;
2161;SDS011;1087;50.226;8.682;2022-12-26T12:06:10;3.63;;;2.60;;
2161;SDS011;1087;50.226;8.682;2022-12-26T12:09:01;4.27;;;2.43;;
2161;SDS011;1087;50.226;8.682;2022-12-26T12:11:33;2.73;;;2.23;;
2161;SDS011;1087;50.226;8.682;2022-12-26T12:14:10;3.13;;;2.47;;
2161;SDS011;1087;50.226;8.682;2022-12-26T12:16:45;3.30;;;2.67;;
2161;SDS011;1087;50.226;8.682;2022-12-26T12:19:28;2.50;;;2.30;;
2161;SDS011;1087;50.226;8.682;2022-12-26T12:22:40;3.30;;;2.30;;
2161;SDS011;1087;50.226;8.682;2022-12-26T12:31:10;2.27;;;2.07;;
2161;SDS011;1087;50.226;8.682;2022-12-26T12:36:12;2.30;;;2.10;;
2161;SDS011;1087;50.226;8.682;2022-12-26T12:38:52;2.80;;;2.43;;
2161;SDS011;1087;50.226;8.682;2022-12-26T12:44:06;3.30;;;2.20;;
2161;SDS011;1087;50.226;8.682;2022-12-26T12:46:52;3.47;;;2.30;;
2161;SDS011;1087;50.226;8.682;2022-12-26T12:58:12;3.97;;;2.40;;
2161;SDS011;1087;50.226;8.682;2022-12-26T13:01:00;3.13;;;2.03;;
2161;SDS011;1087;50.226;8.682;2022-12-26T13:03:40;3.13;;;2.43;;
2161;SDS011;1087;50.226;8.682;2022-12-26T13:06:15;2.60;;;2.40;;
2161;SDS011;1087;50.226;8.682;2022-12-26T13:08:54;2.50;;;2.33;;
2161;SDS011;1087;50.226;8.682;2022-12-26T13:11:32;2.93;;;2.40;;
2161;SDS011;1087;50.226;8.682;2022-12-26T13:14:02;5.03;;;2.70;;
2161;SDS011;1087;50.226;8.682;2022-12-26T13:16:42;2.73;;;2.50;;
2161;SDS011;1087;50.226;8.682;2022-12-26T13:19:18;3.47;;;2.70;;
2161;SDS011;1087;50.226;8.682;2022-12-26T13:21:55;2.40;;;2.10;;
2161;SDS011;1087;50.226;8.682;2022-12-26T13:24:38;2.67;;;1.97;;
2161;SDS011;1087;50.226;8.682;2022-12-26T13:29:39;5.97;;;4.40;;
2161;SDS011;1087;50.226;8.682;2022-12-26T13:34:45;2.77;;;2.00;;
2161;SDS011;1087;50.226;8.682;2022-12-26T13:40:02;1.93;;;1.57;;
2161;SDS011;1087;50.226;8.682;2022-12-26T13:42:39;2.33;;;1.30;;
2161;SDS011;1087;50.226;8.682;2022-12-26T13:48:45;1.53;;;1.20;;
2161;SDS011;1087;50.226;8.682;2022-12-26T13:50:54;1.37;;;1.10;;
2161;SDS011;1087;50.226;8.682;2022-12-26T14:07:09;1.33;;;1.20;;
2161;SDS011;1087;50.226;8.682;2022-12-26T14:09:56;2.03;;;1.37;;
2161;SDS011;1087;50.226;8.682;2022-12-26T14:15:01;2.17;;;1.10;;
2161;SDS011;1087;50.226;8.682;2022-12-26T14:17:47;1.70;;;0.90;;
2161;SDS011;1087;50.226;8.682;2022-12-26T14:20:39;3.53;;;1.47;;
2161;SDS011;1087;50.226;8.682;2022-12-26T14:23:31;1.70;;;1.00;;
2161;SDS011;1087;50.226;8.682;2022-12-26T14:26:06;2.50;;;1.30;;
2161;SDS011;1087;50.226;8.682;2022-12-26T14:37:16;4.47;;;1.60;;
2161;SDS011;1087;50.226;8.682;2022-12-26T14:48:02;4.10;;;1.33;;
2161;SDS011;1087;50.226;8.682;2022-12-26T14:50:45;1.17;;;0.97;;
2161;SDS011;1087;50.226;8.682;2022-12-26T14:55:45;3.03;;;1.00;;
2161;SDS011;1087;50.226;8.682;2022-12-26T14:58:36;2.13;;;1.27;;
2161;SDS011;1087;50.226;8.682;2022-12-26T15:14:56;1.47;;;1.30;;
2161;SDS011;1087;50.226;8.682;2022-12-26T15:17:50;4.60;;;1.30;;
2161;SDS011;1087;50.226;8.682;2022-12-26T15:21:02;2.47;;;1.50;;
2161;SDS011;1087;50.226;8.682;2022-12-26T15:24:04;1.83;;;1.63;;
2161;SDS011;1087;50.226;8.682;2022-12-26T15:26:38;2.67;;;1.20;;
2161;SDS011;1087;50.226;8.682;2022-12-26T15:29:38;1.50;;;1.03;;
2161;SDS011;1087;50.226;8.682;2022-12-26T15:32:28;2.80;;;1.50;;
2161;SDS011;1087;50.226;8.682;2022-12-26T15:35:05;1.73;;;1.63;;
2161;SDS011;1087;50.226;8.682;2022-12-26T15:37:57;3.10;;;1.60;;
2161;SDS011;1087;50.226;8.682;2022-12-26T15:40:28;2.23;;;1.17;;
2161;SDS011;1087;50.226;8.682;2022-12-26T15:43:09;1.30;;;1.10;;
2161;SDS011;1087;50.226;8.682;2022-12-26T15:45:46;2.30;;;1.53;;
2161;SDS011;1087;50.226;8.682;2022-12-26T15:51:12;1.80;;;1.20;;
2161;SDS011;1087;50.226;8.682;2022-12-26T15:59:39;2.80;;;1.80;;
2161;SDS011;1087;50.226;8.682;2022-12-26T16:05:36;2.60;;;1.67;;
2161;SDS011;1087;50.226;8.682;2022-12-26T16:07:51;3.63;;;1.70;;
2161;SDS011;1087;50.226;8.682;2022-12-26T16:10:31;4.00;;;1.47;;
2161;SDS011;1087;50.226;8.682;2022-12-26T16:13:05;3.00;;;1.57;;
2161;SDS011;1087;50.226;8.682;2022-12-26T16:18:15;1.83;;;1.43;;
2161;SDS011;1087;50.226;8.682;2022-12-26T16:20:45;3.57;;;1.63;;
2161;SDS011;1087;50.226;8.682;2022-12-26T16:23:31;1.70;;;1.40;;
2161;SDS011;1087;50.226;8.682;2022-12-26T16:26:00;1.93;;;1.50;;
2161;SDS011;1087;50.226;8.682;2022-12-26T16:28:38;2.30;;;2.10;;
2161;SDS011;1087;50.226;8.682;2022-12-26T16:31:05;2.80;;;1.33;;
2161;SDS011;1087;50.226;8.682;2022-12-26T16:33:33;2.43;;;1.40;;
2161;SDS011;1087;50.226;8.682;2022-12-26T16:36:05;2.00;;;1.57;;
2161;SDS011;1087;50.226;8.682;2022-12-26T16:38:32;1.43;;;1.20;;
2161;SDS011;1087;50.226;8.682;2022-12-26T16:40:58;2.57;;;1.20;;
2161;SDS011;1087;50.226;8.682;2022-12-26T16:45:59;1.77;;;1.30;;
2161;SDS011;1087;50.226;8.682;2022-12-26T16:48:28;3.03;;;1.30;;
2161;SDS011;1087;50.226;8.682;2022-12-26T16:50:56;1.80;;;1.63;;
2161;SDS011;1087;50.226;8.682;2022-12-26T16:58:45;4.07;;;1.63;;
2161;SDS011;1087;50.226;8.682;2022-12-26T17:01:13;2.53;;;2.27;;
2161;SDS011;1087;50.226;8.682;2022-12-26T17:03:47;4.90;;;4.10;;
2161;SDS011;1087;50.226;8.682;2022-12-26T17:06:26;2.83;;;2.60;;
2161;SDS011;1087;50.226;8.682;2022-12-26T17:08:55;2.43;;;2.30;;
2161;SDS011;1087;50.226;8.682;2022-12-26T17:11:27;2.50;;;2.30;;
2161;SDS011;1087;50.226;8.682;2022-12-26T17:13:54;2.27;;;2.07;;
2161;SDS011;1087;50.226;8.682;2022-12-26T17:16:24;2.13;;;1.47;;
2161;SDS011;1087;50.226;8.682;2022-12-26T17:18:53;2.80;;;1.40;;
2161;SDS011;1087;50.226;8.682;2022-12-26T17:21:29;17.60;;;12.17;;
2161;SDS011;1087;50.226;8.682;2022-12-26T17:24:38;17.33;;;15.63;;
2161;SDS011;1087;50.226;8.682;2022-12-26T17:29:51;5.73;;;5.23;;
2161;SDS011;1087;50.226;8.682;2022-12-26T17:34:52;4.30;;;3.57;;
2161;SDS011;1087;50.226;8.682;2022-12-26T17:37:22;2.40;;;1.90;;
2161;SDS011;1087;50.226;8.682;2022-12-26T17:39:52;2.80;;;2.50;;
2161;SDS011;1087;50.226;8.682;2022-12-26T17:42:24;4.83;;;4.43;;
2161;SDS011;1087;50.226;8.682;2022-12-26T17:44:49;5.37;;;3.97;;
2161;SDS011;1087;50.226;8.682;2022-12-26T17:47:19;6.07;;;4.67;;
2161;SDS011;1087;50.226;8.682;2022-12-26T17:49:48;5.33;;;4.30;;
2161;SDS011;1087;50.226;8.682;2022-12-26T17:52:16;3.30;;;3.00;;
2161;SDS011;1087;50.226;8.682;2022-12-26T17:54:44;5.50;;;5.00;;
2161;SDS011;1087;50.226;8.682;2022-12-26T17:57:17;4.30;;;3.70;;
2161;SDS011;1087;50.226;8.682;2022-12-26T17:59:45;3.60;;;3.30;;
2161;SDS011;1087;50.226;8.682;2022-12-26T18:02:11;2.60;;;2.40;;
2161;SDS011;1087;50.226;8.682;2022-12-26T18:04:36;3.33;;;2.10;;
2161;SDS011;1087;50.226;8.682;2022-12-26T18:07:02;1.90;;;1.80;;
2161;SDS011;1087;50.226;8.682;2022-12-26T18:09:28;2.90;;;1.60;;
2161;SDS011;1087;50.226;8.682;2022-12-26T18:11:54;2.37;;;2.03;;
2161;SDS011;1087;50.226;8.682;2022-12-26T18:14:19;2.93;;;2.73;;
2161;SDS011;1087;50.226;8.682;2022-12-26T18:16:45;2.53;;;2.33;;
2161;SDS011;1087;50.226;8.682;2022-12-26T18:19:13;2.30;;;2.10;;
2161;SDS011;1087;50.226;8.682;2022-12-26T18:21:40;2.00;;;1.80;;
2161;SDS011;1087;50.226;8.682;2022-12-26T18:24:06;1.90;;;1.80;;
2161;SDS011;1087;50.226;8.682;2022-12-26T18:26:32;2.60;;;2.40;;
2161;SDS011;1087;50.226;8.682;2022-12-26T18:28:58;1.70;;;1.60;;
2161;SDS011;1087;50.226;8.682;2022-12-26T18:31:24;1.80;;;1.70;;
2161;SDS011;1087;50.226;8.682;2022-12-26T18:33:53;1.60;;;1.50;;
2161;SDS011;1087;50.226;8.682;2022-12-26T18:36:19;2.90;;;1.40;;
2161;SDS011;1087;50.226;8.682;2022-12-26T18:38:50;1.50;;;1.30;;
2161;SDS011;1087;50.226;8.682;2022-12-26T18:41:16;5.90;;;2.70;;
2161;SDS011;1087;50.226;8.682;2022-12-26T18:43:43;2.57;;;1.77;;
2161;SDS011;1087;50.226;8.682;2022-12-26T18:46:15;1.90;;;1.70;;
2161;SDS011;1087;50.226;8.682;2022-12-26T18:48:42;3.00;;;1.60;;
2161;SDS011;1087;50.226;8.682;2022-12-26T18:51:08;1.63;;;1.53;;
2161;SDS011;1087;50.226;8.682;2022-12-26T18:53:33;4.00;;;2.10;;
2161;SDS011;1087;50.226;8.682;2022-12-26T18:55:59;2.17;;;1.70;;
2161;SDS011;1087;50.226;8.682;2022-12-26T18:58:24;2.50;;;2.20;;